AirBox status report


DeploymentOpen DataNumber of DevicesDetailAvg. TemperatureAvg. HumidityAvg. PM2.5Version
1 Edimax AirBox (Taipei) Dataset A30.97% (48/155) [HTML] [JSON] 33.79℃ 91.88% 16.71 μg/m3 2017-09-22T13:21:45Z
2 Edimax AirBox (New Taipei) Dataset B35.23% (105/298) [HTML] [JSON] 33.4℃ 85.85% 18.95 μg/m3 2017-09-22T13:21:45Z
3 Edimax AirBox (Taoyuan) Dataset A59.57% (140/235) [HTML] [JSON] 33.56℃ 74.53% 31.71 μg/m3 2017-09-22T13:21:45Z
4 Edimax AirBox (Taichung) Dataset B85.78% (199/232) [HTML] [JSON] 34.03℃ 84.09% 37.25 μg/m3 2017-09-22T13:21:45Z
5 Edimax AirBox (Tainan) Dataset B62.62% (134/214) [HTML] [JSON] 34.88℃ 86.96% 42.32 μg/m3 2017-09-22T13:21:45Z
6 Edimax AirBox (Kaohsiung) Dataset B76.86% (186/242) [HTML] [JSON] 34.57℃ 84.25% 40.39 μg/m3 2017-09-22T13:21:45Z
7 Edimax AirBox (LASS) Dataset A29.73% (22/74) [HTML] [JSON] 34.14℃ 77.77% 33.14 μg/m3 2017-09-22T13:21:45Z
8 Edimax AirBox (TaichungZero) Dataset A78.79% (104/132) [HTML] [JSON] 34.12℃ 83.62% 37.08 μg/m3 2017-09-22T13:21:45Z
9 Edimax AirBox (TaoyuanFirst) Dataset A77.78% (21/27) [HTML] [JSON] 33.66℃ 79.57% 38.52 μg/m3 2017-09-22T13:21:45Z
10 Edimax AirBox (other) Dataset A100% (463/463) [HTML] [JSON] 33.25℃ 84% 5 μg/m3 2017-09-22T13:21:45Z
11 LASS AirBox (Hsinchu) Dataset A8% (4/50) [HTML] [JSON] 33.69℃ 69.5% 55 μg/m3 2017-09-22T13:21:45Z
12 LASS (LASS FT) Dataset C100% (77/77) [HTML] [JSON] 28.01℃ 64.32% 32.47 μg/m3 2017-09-22T13:21:45Z
13 LASS (LASS4U) Dataset D100% (77/77) [HTML] [JSON] 29.41℃ 68.91% 24.3 μg/m3 2017-09-22T13:21:45Z
14 MAPS (LoRa) Dataset E0% (0/5) [HTML] [JSON] 0℃ 0% 0 μg/m3 2017-09-22T13:21:45Z
15 MAPS (WiFi) Dataset E21.84% (19/87) [HTML] [JSON] -21.51℃ 56.01% 38.79 μg/m3 2017-09-22T13:21:45Z
16 MAPS (other) Dataset ENAN% (0/0) [HTML] [JSON] 0℃ 0% 0 μg/m3 2017-09-22T13:21:45Z
17 EEVEE Dataset F100% (1/1) [HTML] [JSON] 32.5℃ 71% 52 μg/m3 2017-09-22T13:21:45Z
18 *Asus AirBox Dataset G100% (123/123) [HTML] [JSON] 32.38℃ 81.29% 26.98 μg/m3 2017-09-22T13:21:45Z
19 *gov Indie Dataset H100% (3/3) [HTML] [JSON] 32.36℃ 49.73% 22.33 μg/m3 2017-09-22T13:21:45Z
20 *ProbeCube Dataset I100% (6/6) [HTML] [JSON] 30.13℃ 74.9% 16.33 μg/m3 2017-09-22T13:21:45Z
21 Total 69.25% (1732/2501)

Resource:

Note: